Hood River, OR

10:43 AM PST on December 10, 2016 (GMT -0800)
| | Change Station

Elev -9999 ft 0.00 °N, 0.00 °E | Updated 1 minute ago

Overcast
Overcast
51 °F
Feels Like 51 °F
N
10
Wind Variable Wind from West
Gusts 17 mph

Today
High -- | Low -- °F
--% Chance of Precip.
Yesterday
High -- | Low -- °F
Precip. -- in
Pressure 30.05 in
Visibility 10.0 miles
Clouds Scattered Clouds 500 ft
Dew Point 42 °F
Humidity 70%
Rainfall --
Snow Depth Not available.
7:36 AM 4:21 PM
Waxing Gibbous, 85% visible
SPECI KDLS 101831Z AUTO 09003KT 10SM SCT005 M04/M07 A3005 RMK AO2 T10391072
Pressure 30.05 in
Visibility 10.0 miles
Clouds Scattered Clouds 500 ft
Dew Point 42 °F
Humidity 70%
Rainfall --
Snow Depth Not available.
7:36 AM 4:21 PM
Waxing Gibbous, 85% visible
SPECI KDLS 101831Z AUTO 09003KT 10SM SCT005 M04/M07 A3005 RMK AO2 T10391072

10-Day Weather Forecast

Almanac

Astronomy

Dec. 10, 2016 Rise Set
Actual Time
Civil Twilight
Nautical Twilight
Astronomical Twilight
Moon
Length of Visible Light
Length of Day
Tomorrow will be .
, % of the Moon is Illuminated

Today's Extremes

State Highs State Lows

Community

WunderPhotos

Upload Photos

1,956,619 photos uploaded!

WunderBlog® & News

Nearby

Air Quality

  Air Quality AQ Index Pollutant
Not available.

Snow Depth

Station Depth Elevation

Earthquake Activity

City Distance Mag. Time & Date
Minimum magnitude displayed is 2.5.

Coastal Water Temperatures

Place Temperature

Stations

Nearby Weather Stations

Station Location Temp. Windchill Dew Point Humidity Wind Precip. Elev Updated Type
                   

Watches & Warnings

There are currently no watches in effect.